Time;durP1;ratioP1;P1;durP2;ratioP2;P2;SDS_P1;SDS_P2;PMS_P1;PMS_P2;Temp;Humidity;BMP_temperature;BMP_pressure;BME280_temperature;BME280_humidity;BME280_pressure;Samples;Min_cycle;Max_cycle;Signal;HPM_P1;HPM_P2
2021/08/27 00:00:00;;;;;;;3.35;0.82;;;;;;;16.76;55.18;101691.38;4856902;28;124131;-68
2021/08/27 00:02:27;;;;;;;2.70;1.00;;;;;;;16.78;55.30;101689.47;4862284;28;124168;-68
2021/08/27 00:04:55;;;;;;;4.60;1.15;;;;;;;16.80;55.17;101698.31;4862629;28;115275;-69
2021/08/27 00:07:22;;;;;;;3.85;0.95;;;;;;;16.80;55.29;101687.59;4866520;28;114712;-68
2021/08/27 00:09:49;;;;;;;5.78;1.10;;;;;;;16.80;55.32;101703.66;4845502;28;123071;-69
2021/08/27 00:12:16;;;;;;;1.42;0.82;;;;;;;16.82;55.33;101700.88;4861911;28;124285;-68
2021/08/27 00:14:44;;;;;;;3.95;1.10;;;;;;;16.81;55.32;101693.81;4863455;28;114363;-68
2021/08/27 00:17:12;;;;;;;4.38;1.17;;;;;;;16.80;55.42;101695.63;4866359;28;114129;-68
2021/08/27 00:19:39;;;;;;;4.00;0.90;;;;;;;16.79;55.44;101696.56;4851897;28;123842;-69
2021/08/27 00:22:06;;;;;;;6.28;1.00;;;;;;;16.78;55.64;101689.47;4864844;28;123752;-69
2021/08/27 00:24:33;;;;;;;2.83;0.80;;;;;;;16.78;55.64;101691.28;4861097;28;114110;-69
2021/08/27 00:27:01;;;;;;;2.47;0.93;;;;;;;16.76;55.52;101686.03;4851126;28;114139;-69
2021/08/27 00:29:28;;;;;;;4.75;1.00;;;;;;;16.74;55.47;101678.13;4862156;28;124014;-69
2021/08/27 00:31:55;;;;;;;3.80;1.00;;;;;;;16.74;55.54;101677.22;4866433;28;123919;-69
2021/08/27 00:34:22;;;;;;;4.07;1.15;;;;;;;16.71;55.42;101686.31;4860312;28;114939;-68
2021/08/27 00:36:49;;;;;;;2.63;0.80;;;;;;;16.70;55.54;101681.03;4866014;28;113855;-68
2021/08/27 00:39:16;;;;;;;3.55;1.05;;;;;;;16.66;55.45;101668.78;4865546;28;123834;-69
2021/08/27 00:41:43;;;;;;;2.42;0.90;;;;;;;16.63;55.53;101675.19;4861575;28;124579;-69
2021/08/27 00:44:10;;;;;;;2.88;1.02;;;;;;;16.60;55.49;101669.16;4863598;28;114297;-69
2021/08/27 00:46:37;;;;;;;5.45;1.20;;;;;;;16.57;55.68;101669.31;4858890;28;113738;-68
2021/08/27 00:49:05;;;;;;;2.70;1.05;;;;;;;16.54;55.73;101671.22;4834550;28;123187;-68
2021/08/27 00:51:32;;;;;;;3.38;1.00;;;;;;;16.52;56.14;101675.78;4860762;28;124501;-69
2021/08/27 00:53:59;;;;;;;3.20;0.90;;;;;;;16.49;55.85;101675.09;4867682;28;115222;-69
2021/08/27 00:56:28;;;;;;;4.13;1.10;;;;;;;16.48;55.99;101671.56;4849649;28;114073;-69
2021/08/27 00:58:55;;;;;;;3.90;1.13;;;;;;;16.49;56.18;101675.09;4866316;28;123808;-69
2021/08/27 01:01:22;;;;;;;3.90;1.30;;;;;;;16.49;56.14;101673.28;4862064;28;124168;-68
2021/08/27 01:03:50;;;;;;;2.53;1.10;;;;;;;16.49;56.19;101672.44;4861418;28;114223;-69
2021/08/27 01:06:21;;;;;;;3.85;1.15;;;;;;;16.49;56.28;101673.28;4861834;28;113665;-69
2021/08/27 01:08:58;;;;;;;5.40;1.30;;;;;;;16.53;56.34;101676.66;4855291;28;124113;-69
2021/08/27 01:11:32;;;;;;;4.07;1.30;;;;;;;16.52;56.36;101673.13;4855669;28;123914;-69
2021/08/27 01:14:03;;;;;;;4.07;1.42;;;;;;;16.53;56.71;101677.50;4842353;28;112488;-69
2021/08/27 01:16:41;;;;;;;3.58;1.20;;;;;;;16.55;56.50;101666.72;4845538;28;112696;-69
2021/08/27 01:19:43;;;;;;;3.40;1.30;;;;;;;16.55;56.55;101672.94;4855934;28;123944;-69
2021/08/27 01:22:32;;;;;;;3.25;0.90;;;;;;;16.57;56.48;101674.66;4867238;28;123897;-69
2021/08/27 01:25:00;;;;;;;4.05;1.30;;;;;;;16.57;56.54;101670.16;4843767;28;113846;-69
2021/08/27 01:27:28;;;;;;;4.45;1.35;;;;;;;16.58;56.65;101671.06;4835589;28;113196;-68
2021/08/27 01:30:16;;;;;;;4.90;1.20;;;;;;;16.58;56.68;101671.06;4852405;28;123586;-68
2021/08/27 01:33:22;;;;;;;3.88;1.20;;;;;;;16.59;56.73;101672.75;4859326;28;123828;-69
2021/08/27 01:35:55;;;;;;;3.05;1.25;;;;;;;16.61;56.63;101665.50;4868609;28;114096;-69
2021/08/27 01:38:32;;;;;;;5.13;1.30;;;;;;;16.62;56.74;101667.25;4861155;28;114009;-69
2021/08/27 01:41:00;;;;;;;4.30;1.17;;;;;;;16.63;56.62;101666.28;4862204;28;123785;-69
2021/08/27 01:43:29;;;;;;;3.17;1.10;;;;;;;16.63;56.66;101659.16;4857185;28;123827;-69
2021/08/27 01:45:59;;;;;;;2.78;1.10;;;;;;;16.63;56.54;101664.50;4858784;28;115500;-69
2021/08/27 01:48:31;;;;;;;4.60;1.20;;;;;;;16.61;56.66;101661.00;4857415;28;114664;-69
2021/08/27 01:50:58;;;;;;;3.35;1.20;;;;;;;16.61;56.60;101660.16;4858379;28;123714;-69
2021/08/27 01:53:28;;;;;;;5.10;1.48;;;;;;;16.60;56.57;101658.47;4861929;28;123660;-69
2021/08/27 01:55:59;;;;;;;4.32;1.55;;;;;;;16.58;56.54;101665.72;4859325;28;114269;-68
2021/08/27 01:58:29;;;;;;;4.50;1.02;;;;;;;16.55;56.47;101667.56;4858592;28;113878;-69
2021/08/27 02:00:57;;;;;;;3.70;1.13;;;;;;;16.50;56.48;101669.69;4842678;28;123533;-68
2021/08/27 02:03:28;;;;;;;4.40;1.33;;;;;;;16.47;56.60;101667.16;4865427;28;124113;-68
2021/08/27 02:05:57;;;;;;;6.60;1.50;;;;;;;16.44;56.58;101670.00;4865927;28;114962;-69
2021/08/27 02:08:26;;;;;;;7.20;1.33;;;;;;;16.41;56.71;101675.53;4865427;28;114122;-69
2021/08/27 02:10:54;;;;;;;3.10;1.08;;;;;;;16.39;56.63;101676.56;4859200;28;124722;-69
2021/08/27 02:13:22;;;;;;;4.80;1.15;;;;;;;16.36;56.71;101677.59;4862488;28;123486;-69
2021/08/27 02:15:50;;;;;;;2.53;0.98;;;;;;;16.34;56.80;101679.50;4857822;28;114190;-69
2021/08/27 02:18:18;;;;;;;4.82;1.20;;;;;;;16.31;56.66;101679.66;4852275;28;113065;-69
2021/08/27 02:20:45;;;;;;;4.07;1.35;;;;;;;16.29;56.75;101684.22;4866269;28;123631;-68
2021/08/27 02:23:14;;;;;;;4.10;1.20;;;;;;;16.27;56.80;101678.13;4850728;28;123454;-69
2021/08/27 02:25:46;;;;;;;4.05;1.60;;;;;;;16.24;56.89;101678.31;4861936;28;114595;-69
2021/08/27 02:28:14;;;;;;;3.72;1.30;;;;;;;16.23;56.94;101681.91;4856982;28;113753;-69
2021/08/27 02:30:42;;;;;;;3.15;1.13;;;;;;;16.21;57.00;101689.16;4857773;28;124341;-69
2021/08/27 02:33:12;;;;;;;5.03;1.40;;;;;;;16.20;57.05;101687.41;4860475;28;96759;-68
2021/08/27 02:35:41;;;;;;;5.95;1.50;;;;;;;16.19;57.14;101688.38;4860579;28;116602;-69
2021/08/27 02:38:14;;;;;;;5.32;1.20;;;;;;;16.18;57.07;101694.66;4862910;28;114750;-69
2021/08/27 02:40:41;;;;;;;5.95;1.20;;;;;;;16.17;56.98;101692.94;4871776;28;122804;-68
2021/08/27 02:43:08;;;;;;;3.70;1.30;;;;;;;16.14;57.15;101689.50;4871334;23;123267;-64
2021/08/27 02:45:35;;;;;;;4.05;1.33;;;;;;;16.13;57.10;101693.09;4865669;28;113932;-64
2021/08/27 02:48:04;;;;;;;3.53;1.40;;;;;;;16.12;57.17;101691.41;4861674;28;113743;-64
2021/08/27 02:50:37;;;;;;;6.22;1.30;;;;;;;16.09;57.45;101688.88;4866870;28;124216;-64
2021/08/27 02:53:10;;;;;;;6.32;1.20;;;;;;;16.07;57.29;101693.44;4856046;28;122713;-65
2021/08/27 02:55:43;;;;;;;3.40;1.48;;;;;;;16.05;57.32;101684.66;4865455;28;114256;-65
2021/08/27 02:58:27;;;;;;;3.35;1.50;;;;;;;16.05;57.27;101690.00;4866752;28;113812;-65
2021/08/27 03:01:00;;;;;;;2.90;1.30;;;;;;;16.02;57.34;101676.78;4857215;28;123278;-65
2021/08/27 03:03:32;;;;;;;5.05;1.35;;;;;;;16.00;57.34;101681.38;4862196;28;124753;-65
2021/08/27 03:06:13;;;;;;;6.45;1.60;;;;;;;15.95;57.50;101688.75;4862525;28;114333;-65
2021/08/27 03:08:53;;;;;;;6.50;1.40;;;;;;;15.93;57.43;101685.31;4856782;28;113529;-65
2021/08/27 03:11:28;;;;;;;4.00;1.50;;;;;;;15.93;57.43;101685.31;4861781;28;124794;-65
2021/08/27 03:14:01;;;;;;;4.15;1.50;;;;;;;15.94;57.81;101687.03;4859821;28;124391;-65
2021/08/27 03:16:29;;;;;;;4.25;1.42;;;;;;;15.93;57.53;101696.00;4861947;28;114165;-65
2021/08/27 03:19:05;;;;;;;3.08;1.77;;;;;;;15.93;57.66;101696.84;4865839;28;114140;-65
2021/08/27 03:21:41;;;;;;;5.35;1.25;;;;;;;15.92;57.75;101694.28;4853519;28;124656;-65
2021/08/27 03:24:35;;;;;;;2.45;1.45;;;;;;;15.92;57.77;101699.63;4863427;28;124695;-65
2021/08/27 03:27:08;;;;;;;3.75;1.40;;;;;;;15.91;57.87;101698.75;4862145;28;115424;-65
2021/08/27 03:29:41;;;;;;;4.28;1.35;;;;;;;15.93;58.13;101693.31;4864118;28;114798;-65
2021/08/27 03:32:09;;;;;;;3.55;1.35;;;;;;;15.94;57.87;101693.25;4861244;28;124281;-66
2021/08/27 03:34:41;;;;;;;6.72;1.50;;;;;;;15.94;58.13;101692.41;4856141;28;124681;-65
2021/08/27 03:37:08;;;;;;;4.78;1.50;;;;;;;15.95;57.93;101688.75;4860203;28;114626;-65
2021/08/27 03:39:36;;;;;;;2.38;1.30;;;;;;;15.95;58.00;101689.66;4864007;28;114480;-65
2021/08/27 03:42:05;;;;;;;2.50;1.15;;;;;;;15.95;58.08;101694.09;4859561;28;124093;-65
2021/08/27 03:44:33;;;;;;;4.13;1.35;;;;;;;15.94;58.14;101692.41;4860821;28;125040;-65
2021/08/27 03:47:03;;;;;;;4.85;1.45;;;;;;;15.95;58.41;101686.09;4859228;28;114684;-65
2021/08/27 03:49:32;;;;;;;4.85;1.40;;;;;;;15.95;58.42;101683.41;4860604;28;113451;-65
2021/08/27 03:52:01;;;;;;;2.97;1.20;;;;;;;15.97;58.53;101686.88;4862635;28;124784;-65
2021/08/27 03:54:29;;;;;;;5.05;1.63;;;;;;;15.99;58.48;101690.31;4860229;28;124282;-65
2021/08/27 03:56:59;;;;;;;6.10;1.85;;;;;;;16.01;58.57;101693.78;4858993;28;114221;-65
2021/08/27 03:59:27;;;;;;;6.10;1.45;;;;;;;16.03;58.62;101686.56;4848107;28;112886;-65
2021/08/27 04:01:55;;;;;;;5.45;1.30;;;;;;;16.06;58.75;101702.41;4862382;28;123981;-65
2021/08/27 04:04:23;;;;;;;4.80;1.33;;;;;;;16.07;58.69;101688.09;4871349;28;123739;-65
2021/08/27 04:07:02;;;;;;;4.05;1.10;;;;;;;16.08;58.82;101703.19;4868692;28;113867;-64
2021/08/27 04:09:31;;;;;;;5.70;1.50;;;;;;;16.11;58.92;101695.00;4857960;28;113959;-64
2021/08/27 04:12:01;;;;;;;4.82;1.30;;;;;;;16.14;58.95;101684.16;4862162;28;123999;-64
2021/08/27 04:14:33;;;;;;;5.72;1.60;;;;;;;16.18;59.04;101694.66;4860754;28;123949;-65
2021/08/27 04:17:02;;;;;;;5.60;1.30;;;;;;;16.22;59.10;101690.88;4862499;28;115375;-65
2021/08/27 04:19:29;;;;;;;4.22;1.40;;;;;;;16.24;59.09;101681.84;4863772;28;114973;-65
2021/08/27 04:21:56;;;;;;;4.28;1.20;;;;;;;16.28;59.02;101687.88;4861071;28;124640;-65
2021/08/27 04:24:25;;;;;;;4.28;1.35;;;;;;;16.31;59.10;101682.34;4857694;28;123733;-65
2021/08/27 04:26:52;;;;;;;5.10;1.67;;;;;;;16.33;59.18;101689.34;4857390;28;114879;-65
2021/08/27 04:29:19;;;;;;;3.10;1.20;;;;;;;16.37;59.13;101689.16;4859949;28;114040;-65
2021/08/27 04:31:46;;;;;;;3.25;1.20;;;;;;;16.40;59.22;101689.84;4863090;28;124799;-65
2021/08/27 04:34:13;;;;;;;6.25;1.35;;;;;;;16.44;59.26;101686.03;4862807;28;124255;-65
2021/08/27 04:36:40;;;;;;;4.70;1.42;;;;;;;16.46;59.25;101678.81;4862308;28;114327;-65
2021/08/27 04:39:08;;;;;;;9.68;1.30;;;;;;;16.48;59.17;101687.63;4859531;28;113777;-65
2021/08/27 04:41:35;;;;;;;5.80;1.50;;;;;;;16.51;59.27;101687.44;4858778;28;124071;-65
2021/08/27 04:44:02;;;;;;;3.15;1.25;;;;;;;16.55;59.17;101686.31;4859327;28;124534;-65
2021/08/27 04:46:30;;;;;;;3.28;1.10;;;;;;;16.57;59.18;101690.72;4862634;28;114994;-65
2021/08/27 04:48:57;;;;;;;5.00;1.50;;;;;;;16.60;59.31;101695.91;4857359;28;113834;-65
2021/08/27 04:51:25;;;;;;;5.05;1.30;;;;;;;16.64;59.18;101697.44;4861821;28;124383;-65
2021/08/27 04:53:52;;;;;;;4.88;1.20;;;;;;;16.66;59.10;101692.88;4855507;28;123763;-65
2021/08/27 04:56:19;;;;;;;4.65;1.70;;;;;;;16.69;59.10;101700.72;4863209;28;114145;-65
2021/08/27 04:58:46;;;;;;;5.00;1.42;;;;;;;16.70;59.13;101702.44;4843849;28;113059;-65
2021/08/27 05:01:14;;;;;;;5.13;1.27;;;;;;;16.71;59.02;101696.16;4861260;28;124404;-65
2021/08/27 05:03:41;;;;;;;3.53;1.30;;;;;;;16.73;59.08;101707.63;4859875;28;124660;-65
2021/08/27 05:06:08;;;;;;;2.92;1.17;;;;;;;16.72;59.19;101700.53;4860366;28;115978;-65
2021/08/27 05:08:36;;;;;;;4.45;1.20;;;;;;;16.73;59.18;101699.59;4858776;28;115087;-65
2021/08/27 05:11:04;;;;;;;2.58;1.17;;;;;;;16.76;59.17;101712.78;4859783;28;123903;-65
2021/08/27 05:13:32;;;;;;;4.53;1.10;;;;;;;16.77;59.38;101714.53;4845614;29;124608;-64
2021/08/27 05:15:59;;;;;;;5.10;1.20;;;;;;;16.81;59.35;101713.38;4843847;28;113051;-64
2021/08/27 05:18:29;;;;;;;5.20;1.42;;;;;;;16.84;59.53;101715.03;4860936;28;114263;-64
2021/08/27 05:20:57;;;;;;;3.78;1.30;;;;;;;16.88;59.61;101717.47;4862623;28;124032;-66
2021/08/27 05:23:24;;;;;;;3.67;1.30;;;;;;;16.92;59.66;101719.00;4858482;28;124735;-66
2021/08/27 05:25:53;;;;;;;4.50;1.17;;;;;;;16.96;59.68;101724.19;4864172;28;115395;-66
2021/08/27 05:28:20;;;;;;;3.60;1.13;;;;;;;17.00;59.62;101715.03;4857856;28;114472;-66
2021/08/27 05:30:47;;;;;;;3.47;1.20;;;;;;;17.05;59.64;101718.31;4853229;28;123862;-66
2021/08/27 05:33:14;;;;;;;4.07;1.33;;;;;;;17.09;59.88;101719.84;4869837;28;124022;-66
2021/08/27 05:35:42;;;;;;;5.22;1.10;;;;;;;17.13;59.66;101716.03;4860302;28;114338;-66
2021/08/27 05:38:09;;;;;;;3.15;1.20;;;;;;;17.18;59.78;101713.97;4861963;28;113832;-64
2021/08/27 05:40:36;;;;;;;3.25;1.00;;;;;;;17.22;59.82;101715.50;4860389;28;124090;-66
2021/08/27 05:43:03;;;;;;;2.95;0.98;;;;;;;17.28;59.98;101717.81;4858544;28;123573;-66
2021/08/27 05:45:30;;;;;;;2.08;1.15;;;;;;;17.36;59.74;101712.00;4859297;28;114155;-67
2021/08/27 05:47:58;;;;;;;3.40;1.00;;;;;;;17.44;59.88;101719.56;4858323;28;113789;-64
2021/08/27 05:50:27;;;;;;;3.90;1.10;;;;;;;17.51;59.94;101721.78;4858607;28;124263;-66
2021/08/27 05:52:54;;;;;;;4.60;0.95;;;;;;;17.60;59.98;101727.56;4861150;28;123678;-66
2021/08/27 05:55:21;;;;;;;2.60;1.25;;;;;;;17.68;59.84;101720.75;4857683;28;115346;-66
2021/08/27 05:57:49;;;;;;;3.80;1.10;;;;;;;17.77;59.89;101721.16;4860830;28;114275;-66
2021/08/27 06:00:17;;;;;;;2.05;0.90;;;;;;;17.85;60.05;101718.91;4856778;28;124392;-64
2021/08/27 06:02:45;;;;;;;4.68;1.30;;;;;;;17.95;59.92;101720.06;4856448;28;124676;-66
2021/08/27 06:05:13;;;;;;;3.17;1.08;;;;;;;18.02;59.70;101721.38;4856652;28;114304;-64
2021/08/27 06:07:40;;;;;;;3.72;1.10;;;;;;;18.11;59.70;101721.78;4857792;28;112872;-66
2021/08/27 06:10:08;;;;;;;3.10;1.05;;;;;;;18.17;59.64;101729.44;4855614;28;124474;-66
2021/08/27 06:12:36;;;;;;;3.83;1.08;;;;;;;18.25;59.56;101728.00;4860896;28;124016;-64
2021/08/27 06:15:05;;;;;;;5.05;1.35;;;;;;;18.33;59.66;101719.47;4863241;28;114612;-65
2021/08/27 06:17:33;;;;;;;6.07;1.10;;;;;;;18.41;59.47;101722.50;4864086;28;113596;-66
2021/08/27 06:20:03;;;;;;;4.13;1.10;;;;;;;18.47;59.45;101724.78;4862479;28;124468;-66
2021/08/27 06:22:30;;;;;;;5.93;1.20;;;;;;;18.53;59.30;101725.38;4864669;28;123770;-66
2021/08/27 06:24:58;;;;;;;4.28;1.00;;;;;;;18.57;59.26;101726.88;4855766;28;114379;-66
2021/08/27 06:27:25;;;;;;;3.28;1.02;;;;;;;18.63;59.30;101731.88;4858026;28;114031;-66
2021/08/27 06:29:52;;;;;;;2.95;1.10;;;;;;;18.67;59.24;101728.03;4859033;28;127282;-66
2021/08/27 06:32:20;;;;;;;5.25;1.40;;;;;;;18.74;59.24;101729.34;4858393;28;124080;-66
2021/08/27 06:34:47;;;;;;;4.40;1.10;;;;;;;18.79;59.14;101737.94;4850947;28;113136;-66
2021/08/27 06:37:14;;;;;;;4.20;1.10;;;;;;;18.84;59.04;101738.53;4866162;28;113568;-66
2021/08/27 06:39:41;;;;;;;6.97;0.90;;;;;;;18.90;58.69;101733.75;4865700;28;123985;-67
2021/08/27 06:42:09;;;;;;;3.63;1.13;;;;;;;18.95;58.86;101736.97;4862664;28;124081;-66
2021/08/27 06:44:36;;;;;;;3.28;1.00;;;;;;;19.02;58.92;101741.84;4860297;28;116151;-66
2021/08/27 06:47:03;;;;;;;3.40;1.00;;;;;;;19.11;58.86;101736.81;4857278;28;114769;-65
2021/08/27 06:49:30;;;;;;;3.55;0.90;;;;;;;19.18;58.67;101733.63;4865671;28;124920;-66
2021/08/27 06:51:58;;;;;;;5.30;1.10;;;;;;;19.28;58.70;101743.75;4864398;28;124328;-63
2021/08/27 06:54:25;;;;;;;4.38;1.08;;;;;;;19.36;58.54;101741.41;4863076;28;114616;-63
2021/08/27 06:56:54;;;;;;;3.42;0.90;;;;;;;19.41;58.46;101736.56;4852593;28;114646;-64
2021/08/27 06:59:21;;;;;;;3.60;0.90;;;;;;;19.44;58.19;101741.75;4841766;28;124653;-64
2021/08/27 07:01:48;;;;;;;3.58;0.90;;;;;;;19.48;57.80;101739.69;4856689;28;122887;-64
2021/08/27 07:04:15;;;;;;;2.70;1.10;;;;;;;19.49;57.85;101742.28;4859711;28;114631;-64
2021/08/27 07:06:42;;;;;;;2.90;0.98;;;;;;;19.52;57.73;101752.81;4870240;28;113830;-64
2021/08/27 07:09:11;;;;;;;2.20;1.05;;;;;;;19.56;57.85;101746.25;4866370;28;124107;-65
2021/08/27 07:11:38;;;;;;;3.03;1.08;;;;;;;19.64;57.83;101751.97;4867875;28;124873;-66
2021/08/27 07:14:07;;;;;;;3.75;1.08;;;;;;;19.73;57.86;101744.28;4869273;28;115135;-65
2021/08/27 07:16:34;;;;;;;3.22;1.10;;;;;;;19.81;57.71;101747.28;4872788;28;114633;-66
2021/08/27 07:19:01;;;;;;;4.88;1.20;;;;;;;19.87;57.73;101746.84;4873475;28;124433;-66
2021/08/27 07:21:28;;;;;;;3.65;1.10;;;;;;;19.92;57.43;101755.47;4872990;28;124257;-66
2021/08/27 07:23:55;;;;;;;3.92;0.98;;;;;;;19.96;57.31;101746.22;4872780;28;115059;-66
2021/08/27 07:26:22;;;;;;;4.80;1.08;;;;;;;20.00;57.25;101741.47;4861507;28;112868;-66
2021/08/27 07:28:50;;;;;;;2.22;1.00;;;;;;;20.05;57.28;101754.63;4862323;28;124059;-66
2021/08/27 07:31:17;;;;;;;2.40;1.00;;;;;;;20.11;57.04;101752.34;4861609;28;123890;-66
2021/08/27 07:33:44;;;;;;;4.18;1.10;;;;;;;20.18;57.07;101750.09;4856518;28;115788;-66
2021/08/27 07:36:11;;;;;;;4.95;1.10;;;;;;;20.29;57.00;101747.50;4860672;28;115216;-66
2021/08/27 07:38:38;;;;;;;2.97;1.00;;;;;;;20.40;57.11;101744.88;4862680;28;124720;-66
2021/08/27 07:41:05;;;;;;;5.68;1.20;;;;;;;20.55;56.90;101742.03;4870932;28;123904;-66
2021/08/27 07:43:33;;;;;;;3.13;0.90;;;;;;;20.69;56.88;101744.63;4873687;28;114373;-66
2021/08/27 07:46:00;;;;;;;5.05;1.00;;;;;;;20.84;56.55;101752.53;4875320;28;113973;-66
2021/08/27 07:48:27;;;;;;;2.70;0.82;;;;;;;20.98;56.57;101752.34;4873626;28;124799;-66
2021/08/27 07:50:55;;;;;;;3.63;0.90;;;;;;;21.09;56.18;101747.03;4869663;28;123297;-66
2021/08/27 07:53:23;;;;;;;3.88;1.17;;;;;;;21.20;55.63;101747.06;4872686;28;114336;-65
2021/08/27 07:55:51;;;;;;;4.07;0.80;;;;;;;21.32;55.35;101747.13;4861276;28;114433;-65
2021/08/27 07:58:18;;;;;;;5.13;1.13;;;;;;;21.39;55.38;101748.38;4866159;28;124169;-65
2021/08/27 08:00:45;;;;;;;5.07;1.20;;;;;;;21.50;55.16;101745.75;4866523;28;124412;-65
2021/08/27 08:03:13;;;;;;;4.43;1.02;;;;;;;21.62;54.78;101737.69;4844743;28;113338;-65
2021/08/27 08:05:40;;;;;;;1.77;0.73;;;;;;;21.65;54.36;101742.84;4874602;28;113833;-65
2021/08/27 08:08:07;;;;;;;1.55;0.70;;;;;;;21.71;54.38;101740.53;4872597;28;124682;-65
2021/08/27 08:10:34;;;;;;;2.95;0.95;;;;;;;21.77;53.94;101736.47;4865042;28;124678;-66
2021/08/27 08:13:02;;;;;;;5.18;0.95;;;;;;;21.79;53.77;101745.31;4858678;28;113231;-66
2021/08/27 08:15:29;;;;;;;2.15;0.77;;;;;;;21.82;53.73;101747.78;4873623;28;114225;-66
2021/08/27 08:17:56;;;;;;;1.77;0.88;;;;;;;21.84;53.50;101753.91;4868284;28;123950;-66
2021/08/27 08:20:23;;;;;;;4.03;1.20;;;;;;;21.84;53.39;101753.91;4865796;28;124107;-66
2021/08/27 08:23:00;;;;;;;5.45;1.10;;;;;;;21.82;53.39;101747.78;4874419;28;115335;-66
2021/08/27 08:25:27;;;;;;;5.30;1.10;;;;;;;21.83;53.19;101752.22;4860921;28;113786;-66
2021/08/27 08:27:54;;;;;;;1.88;0.95;;;;;;;21.80;53.09;101757.81;4874697;28;124688;-66
2021/08/27 08:30:21;;;;;;;1.98;0.90;;;;;;;21.76;52.73;101759.06;4876845;28;123760;-66
2021/08/27 08:32:49;;;;;;;5.70;1.00;;;;;;;21.68;52.54;101756.06;4875887;28;115134;-66
2021/08/27 08:35:17;;;;;;;2.65;0.80;;;;;;;21.61;52.79;101762.94;4873278;28;113828;-65
2021/08/27 08:37:44;;;;;;;3.58;0.90;;;;;;;21.55;52.89;101757.03;4875375;28;124154;-66
2021/08/27 08:40:13;;;;;;;1.55;0.98;;;;;;;21.51;52.76;101752.88;4875669;28;124120;-66
2021/08/27 08:42:41;;;;;;;1.80;0.85;;;;;;;21.50;52.89;101750.28;4873324;23;114441;-69
2021/08/27 08:45:09;;;;;;;1.85;0.70;;;;;;;21.50;53.03;101756.53;4889413;28;113619;-68
2021/08/27 08:47:40;;;;;;;3.85;0.70;;;;;;;21.50;53.14;101756.53;4893880;28;124883;-69
2021/08/27 08:50:08;;;;;;;2.67;0.80;;;;;;;21.52;53.17;101759.97;4894677;28;123762;-69
2021/08/27 08:52:45;;;;;;;4.00;0.88;;;;;;;21.53;53.01;101756.31;4878546;28;113591;-68
2021/08/27 08:55:14;;;;;;;1.60;0.70;;;;;;;21.54;52.92;101760.69;4870141;28;115309;-69
2021/08/27 08:57:41;;;;;;;1.35;0.70;;;;;;;21.55;53.11;101754.34;4895142;28;124833;-69
2021/08/27 09:00:09;;;;;;;3.55;0.90;;;;;;;21.54;52.96;101747.22;4894148;28;124191;-69
2021/08/27 09:02:36;;;;;;;2.63;1.00;;;;;;;21.53;52.89;101755.41;4895221;23;114228;-68
2021/08/27 09:05:04;;;;;;;5.05;1.02;;;;;;;21.56;53.16;101761.44;4875662;28;113239;-69
2021/08/27 09:07:32;;;;;;;3.85;0.82;;;;;;;21.62;53.26;101756.56;4846593;29;124035;-69
2021/08/27 09:09:59;;;;;;;3.60;1.00;;;;;;;21.69;53.37;101760.50;4873278;28;124733;-69
2021/08/27 09:12:29;;;;;;;4.45;0.90;;;;;;;21.77;53.09;101752.66;4874914;28;115373;-69
2021/08/27 09:15:00;;;;;;;1.92;0.80;;;;;;;21.86;53.16;101762.72;4876371;28;115848;-69
2021/08/27 09:17:41;;;;;;;3.72;0.85;;;;;;;22.01;53.33;101749.03;4874790;28;123694;-69
2021/08/27 09:20:11;;;;;;;4.07;1.10;;;;;;;22.11;53.08;101750.00;4875088;28;124107;-69
2021/08/27 09:22:46;;;;;;;3.70;1.42;;;;;;;22.23;52.84;101743.63;4872148;28;114238;-69
2021/08/27 09:25:16;;;;;;;2.35;1.00;;;;;;;22.31;52.76;101752.00;4874727;28;115021;-69
2021/08/27 09:28:01;;;;;;;2.72;1.00;;;;;;;22.34;52.88;101751.75;4865564;28;124786;-69
2021/08/27 09:30:31;;;;;;;5.85;1.38;;;;;;;22.39;52.59;101742.44;4874573;28;123893;-69
2021/08/27 09:33:17;;;;;;;2.60;0.98;;;;;;;22.38;52.27;101756.91;4875721;28;114699;-69
2021/08/27 09:35:55;;;;;;;3.47;1.02;;;;;;;22.34;52.45;101751.75;4852751;28;113618;-69
2021/08/27 09:38:43;;;;;;;2.30;1.05;;;;;;;22.33;52.23;101743.78;4865226;28;124372;-69
2021/08/27 09:41:13;;;;;;;2.50;1.00;;;;;;;22.32;52.20;101748.34;4876618;28;124632;-69
2021/08/27 09:43:50;;;;;;;3.40;1.08;;;;;;;22.30;52.25;101750.31;4875080;28;114560;-69
2021/08/27 09:46:43;;;;;;;5.22;1.25;;;;;;;22.32;52.27;101742.94;4870968;28;113833;-69
2021/08/27 09:49:25;;;;;;;3.75;1.10;;;;;;;22.41;52.75;101740.47;4863596;28;124689;-69
2021/08/27 09:51:53;;;;;;;3.67;1.17;;;;;;;22.51;52.71;101736.06;4862108;28;122809;-69
2021/08/27 09:54:32;;;;;;;5.28;1.20;;;;;;;22.59;52.26;101749.78;4875244;28;114197;-69
2021/08/27 09:57:04;;;;;;;2.78;0.90;;;;;;;22.64;52.05;101731.38;4875119;28;114601;-69
2021/08/27 09:59:38;;;;;;;3.70;1.17;;;;;;;22.65;51.98;101743.84;4854841;28;123875;-69
2021/08/27 10:02:16;;;;;;;2.92;0.93;;;;;;;22.66;52.08;101734.78;4848002;28;124705;-69
2021/08/27 10:04:57;;;;;;;3.63;1.10;;;;;;;22.64;51.78;101739.47;4875758;28;115314;-69
2021/08/27 10:07:32;;;;;;;2.33;1.00;;;;;;;22.66;52.11;101729.38;4858118;28;114940;-69
2021/08/27 10:10:01;;;;;;;3.30;1.15;;;;;;;22.72;52.08;101728.88;4847212;28;124447;-69
2021/08/27 10:12:33;;;;;;;2.97;1.08;;;;;;;22.81;52.13;101726.38;4874157;28;124458;-69
2021/08/27 10:15:02;;;;;;;2.38;0.90;;;;;;;22.86;51.90;101724.16;4874138;28;114989;-69
2021/08/27 10:17:29;;;;;;;5.43;1.30;;;;;;;22.88;51.60;101722.19;4874246;28;114034;-69
2021/08/27 10:19:57;;;;;;;4.10;1.23;;;;;;;22.89;51.57;101732.03;4874372;28;124001;-69
2021/08/27 10:22:24;;;;;;;3.45;1.15;;;;;;;22.90;51.62;101715.66;4867667;28;124676;-69
2021/08/27 10:24:51;;;;;;;4.57;1.30;;;;;;;22.95;51.43;101723.41;4873943;28;114330;-69
2021/08/27 10:27:19;;;;;;;6.53;1.50;;;;;;;22.94;51.27;101724.38;4876030;28;114812;-69
2021/08/27 10:29:49;;;;;;;3.70;1.10;;;;;;;22.90;50.88;101722.91;4873045;28;124810;-69
2021/08/27 10:32:39;;;;;;;3.33;1.20;;;;;;;22.81;50.94;101739.88;4874344;28;124778;-69
2021/08/27 10:35:06;;;;;;;2.72;0.93;;;;;;;22.79;51.07;101722.97;4869696;28;114475;-68
2021/08/27 10:37:43;;;;;;;4.15;1.20;;;;;;;22.79;50.99;101712.16;4874418;28;113812;-69
2021/08/27 10:40:22;;;;;;;1.75;1.00;;;;;;;22.79;50.83;101706.75;4871431;28;124640;-69
2021/08/27 10:42:58;;;;;;;3.85;1.10;;;;;;;22.81;50.89;101700.25;4873759;28;123722;-68
2021/08/27 10:45:31;;;;;;;3.50;1.30;;;;;;;22.90;51.24;101698.59;4868299;28;115041;-69
2021/08/27 10:48:18;;;;;;;2.72;1.27;;;;;;;23.02;51.00;101710.22;4874296;28;114079;-69
2021/08/27 10:50:48;;;;;;;2.95;1.20;;;;;;;23.08;50.79;101702.50;4876859;28;123953;-69
2021/08/27 10:53:35;;;;;;;4.53;1.10;;;;;;;23.13;50.91;101711.09;4873097;28;123932;-69
2021/08/27 10:56:29;;;;;;;3.67;1.20;;;;;;;23.18;50.60;101707.13;4862288;28;114431;-69
2021/08/27 10:58:56;;;;;;;4.35;1.30;;;;;;;23.19;50.33;101704.31;4875100;28;113792;-69
2021/08/27 11:02:04;;;;;;;3.67;1.15;;;;;;;23.16;50.54;101719.91;4861052;28;123062;-68
2021/08/27 11:04:46;;;;;;;2.42;1.13;;;;;;;23.03;50.48;101737.16;4842462;28;126721;-71
2021/08/27 11:07:18;;;;;;;3.95;1.20;;;;;;;22.82;50.72;101728.97;4864479;28;114221;-70
2021/08/27 11:10:07;;;;;;;5.70;1.50;;;;;;;22.58;51.26;101721.03;4845779;28;113931;-70
2021/08/27 11:12:58;;;;;;;5.00;1.30;;;;;;;22.36;51.63;101732.75;4868942;28;123934;-70
2021/08/27 11:15:30;;;;;;;4.55;1.20;;;;;;;22.17;51.70;101727.94;4870991;28;123971;-70
2021/08/27 11:18:20;;;;;;;3.08;1.10;;;;;;;22.01;52.57;101722.91;4864643;28;114644;-69
2021/08/27 11:20:49;;;;;;;4.57;1.48;;;;;;;21.92;52.84;101724.47;4873038;28;113774;-69
2021/08/27 11:23:21;;;;;;;3.58;1.30;;;;;;;21.85;53.34;101715.19;4866165;28;124457;-69
2021/08/27 11:26:01;;;;;;;4.18;1.10;;;;;;;21.83;53.55;101714.44;4871344;28;124615;-69
2021/08/27 11:28:29;;;;;;;4.53;1.15;;;;;;;21.81;53.68;101720.94;4855105;28;114041;-69
2021/08/27 11:31:07;;;;;;;3.42;1.05;;;;;;;21.75;53.38;101712.31;4864178;28;114427;-69